sensor_id;sensor_type;location;lat;lon;timestamp;P1;durP1;ratioP1;P2;durP2;ratioP2
73693;SDS011;61997;53.974;11.670;2023-05-21T00:00:38;9.80;;;5.70;;
73693;SDS011;61997;53.974;11.670;2023-05-21T00:03:04;7.85;;;5.15;;
73693;SDS011;61997;53.974;11.670;2023-05-21T00:05:29;9.48;;;5.15;;
73693;SDS011;61997;53.974;11.670;2023-05-21T00:07:55;8.30;;;4.63;;
73693;SDS011;61997;53.974;11.670;2023-05-21T00:10:20;11.93;;;5.65;;
73693;SDS011;61997;53.974;11.670;2023-05-21T00:12:46;7.35;;;4.88;;
73693;SDS011;61997;53.974;11.670;2023-05-21T00:15:11;8.45;;;4.95;;
73693;SDS011;61997;53.974;11.670;2023-05-21T00:17:36;9.40;;;4.90;;
73693;SDS011;61997;53.974;11.670;2023-05-21T00:20:05;9.20;;;4.80;;
73693;SDS011;61997;53.974;11.670;2023-05-21T00:22:32;10.32;;;5.30;;
73693;SDS011;61997;53.974;11.670;2023-05-21T00:24:58;8.50;;;4.85;;
73693;SDS011;61997;53.974;11.670;2023-05-21T00:27:23;9.13;;;4.85;;
73693;SDS011;61997;53.974;11.670;2023-05-21T00:29:49;7.32;;;4.82;;
73693;SDS011;61997;53.974;11.670;2023-05-21T00:32:14;9.88;;;5.32;;
73693;SDS011;61997;53.974;11.670;2023-05-21T00:34:39;10.20;;;5.53;;
73693;SDS011;61997;53.974;11.670;2023-05-21T00:37:06;11.00;;;5.05;;
73693;SDS011;61997;53.974;11.670;2023-05-21T00:39:33;10.32;;;5.88;;
73693;SDS011;61997;53.974;11.670;2023-05-21T00:41:59;9.45;;;5.25;;
73693;SDS011;61997;53.974;11.670;2023-05-21T00:44:24;7.80;;;4.80;;
73693;SDS011;61997;53.974;11.670;2023-05-21T00:46:51;7.95;;;4.88;;
73693;SDS011;61997;53.974;11.670;2023-05-21T00:49:20;8.65;;;5.28;;
73693;SDS011;61997;53.974;11.670;2023-05-21T00:51:46;10.05;;;5.30;;
73693;SDS011;61997;53.974;11.670;2023-05-21T00:54:12;9.30;;;5.05;;
73693;SDS011;61997;53.974;11.670;2023-05-21T00:56:38;10.23;;;4.70;;
73693;SDS011;61997;53.974;11.670;2023-05-21T00:59:03;8.98;;;5.35;;
73693;SDS011;61997;53.974;11.670;2023-05-21T01:01:30;7.53;;;4.75;;
73693;SDS011;61997;53.974;11.670;2023-05-21T01:03:57;8.45;;;4.63;;
73693;SDS011;61997;53.974;11.670;2023-05-21T01:06:25;8.00;;;4.20;;
73693;SDS011;61997;53.974;11.670;2023-05-21T01:08:51;11.23;;;4.85;;
73693;SDS011;61997;53.974;11.670;2023-05-21T01:11:16;8.30;;;4.68;;
73693;SDS011;61997;53.974;11.670;2023-05-21T01:13:42;7.40;;;4.03;;
73693;SDS011;61997;53.974;11.670;2023-05-21T01:16:08;9.18;;;5.35;;
73693;SDS011;61997;53.974;11.670;2023-05-21T01:18:35;7.45;;;4.53;;
73693;SDS011;61997;53.974;11.670;2023-05-21T01:21:01;8.27;;;4.53;;
73693;SDS011;61997;53.974;11.670;2023-05-21T01:23:27;7.53;;;4.20;;
73693;SDS011;61997;53.974;11.670;2023-05-21T01:25:53;8.35;;;4.20;;
73693;SDS011;61997;53.974;11.670;2023-05-21T01:28:18;9.15;;;5.07;;
73693;SDS011;61997;53.974;11.670;2023-05-21T01:30:44;7.93;;;4.20;;
73693;SDS011;61997;53.974;11.670;2023-05-21T01:38:46;7.55;;;4.20;;
73693;SDS011;61997;53.974;11.670;2023-05-21T01:41:13;6.75;;;4.15;;
73693;SDS011;61997;53.974;11.670;2023-05-21T01:43:41;7.80;;;4.45;;
73693;SDS011;61997;53.974;11.670;2023-05-21T01:46:12;8.68;;;4.20;;
73693;SDS011;61997;53.974;11.670;2023-05-21T01:48:39;8.27;;;4.53;;
73693;SDS011;61997;53.974;11.670;2023-05-21T01:51:05;7.75;;;4.10;;
73693;SDS011;61997;53.974;11.670;2023-05-21T01:53:31;7.50;;;3.95;;
73693;SDS011;61997;53.974;11.670;2023-05-21T01:55:56;8.27;;;4.60;;
73693;SDS011;61997;53.974;11.670;2023-05-21T01:58:23;7.32;;;4.60;;
73693;SDS011;61997;53.974;11.670;2023-05-21T02:00:49;8.38;;;4.25;;
73693;SDS011;61997;53.974;11.670;2023-05-21T02:03:15;5.72;;;3.92;;
73693;SDS011;61997;53.974;11.670;2023-05-21T02:05:41;6.75;;;3.63;;
73693;SDS011;61997;53.974;11.670;2023-05-21T02:08:06;7.63;;;3.97;;
73693;SDS011;61997;53.974;11.670;2023-05-21T02:10:32;8.23;;;3.95;;
73693;SDS011;61997;53.974;11.670;2023-05-21T02:12:58;8.98;;;4.63;;
73693;SDS011;61997;53.974;11.670;2023-05-21T02:15:23;6.68;;;3.75;;
73693;SDS011;61997;53.974;11.670;2023-05-21T02:17:49;7.30;;;3.63;;
73693;SDS011;61997;53.974;11.670;2023-05-21T02:20:15;6.50;;;4.07;;
73693;SDS011;61997;53.974;11.670;2023-05-21T02:22:42;5.68;;;4.03;;
73693;SDS011;61997;53.974;11.670;2023-05-21T02:25:08;6.75;;;4.40;;
73693;SDS011;61997;53.974;11.670;2023-05-21T02:27:35;6.97;;;3.97;;
73693;SDS011;61997;53.974;11.670;2023-05-21T02:30:05;7.65;;;4.07;;
73693;SDS011;61997;53.974;11.670;2023-05-21T02:32:32;8.32;;;3.95;;
73693;SDS011;61997;53.974;11.670;2023-05-21T02:34:57;6.43;;;3.70;;
73693;SDS011;61997;53.974;11.670;2023-05-21T02:37:26;6.63;;;3.85;;
73693;SDS011;61997;53.974;11.670;2023-05-21T02:39:55;5.80;;;3.72;;
73693;SDS011;61997;53.974;11.670;2023-05-21T02:42:23;7.82;;;3.67;;
73693;SDS011;61997;53.974;11.670;2023-05-21T02:44:49;6.13;;;3.47;;
73693;SDS011;61997;53.974;11.670;2023-05-21T02:47:15;7.70;;;3.97;;
73693;SDS011;61997;53.974;11.670;2023-05-21T02:49:40;5.10;;;3.70;;
73693;SDS011;61997;53.974;11.670;2023-05-21T02:52:06;4.75;;;3.30;;
73693;SDS011;61997;53.974;11.670;2023-05-21T02:54:31;6.65;;;4.07;;
73693;SDS011;61997;53.974;11.670;2023-05-21T02:56:56;6.60;;;3.63;;
73693;SDS011;61997;53.974;11.670;2023-05-21T02:59:22;7.10;;;3.78;;
73693;SDS011;61997;53.974;11.670;2023-05-21T03:01:48;7.63;;;3.83;;
73693;SDS011;61997;53.974;11.670;2023-05-21T03:04:13;7.18;;;3.78;;
73693;SDS011;61997;53.974;11.670;2023-05-21T03:06:39;5.40;;;3.40;;
73693;SDS011;61997;53.974;11.670;2023-05-21T03:09:04;7.03;;;3.50;;
73693;SDS011;61997;53.974;11.670;2023-05-21T03:11:30;6.25;;;3.40;;
73693;SDS011;61997;53.974;11.670;2023-05-21T03:13:55;6.70;;;3.50;;
73693;SDS011;61997;53.974;11.670;2023-05-21T03:16:20;7.57;;;4.00;;
73693;SDS011;61997;53.974;11.670;2023-05-21T03:18:46;6.70;;;3.25;;
73693;SDS011;61997;53.974;11.670;2023-05-21T03:21:12;7.18;;;3.45;;
73693;SDS011;61997;53.974;11.670;2023-05-21T03:23:39;5.22;;;3.05;;
73693;SDS011;61997;53.974;11.670;2023-05-21T03:26:07;6.28;;;3.25;;
73693;SDS011;61997;53.974;11.670;2023-05-21T03:28:33;5.72;;;3.22;;
73693;SDS011;61997;53.974;11.670;2023-05-21T03:30:59;5.70;;;3.25;;
73693;SDS011;61997;53.974;11.670;2023-05-21T03:33:24;6.95;;;3.25;;
73693;SDS011;61997;53.974;11.670;2023-05-21T03:35:49;8.15;;;3.45;;
73693;SDS011;61997;53.974;11.670;2023-05-21T03:38:15;5.82;;;3.38;;
73693;SDS011;61997;53.974;11.670;2023-05-21T03:40:40;5.15;;;3.33;;
73693;SDS011;61997;53.974;11.670;2023-05-21T03:43:05;5.78;;;3.78;;
73693;SDS011;61997;53.974;11.670;2023-05-21T03:45:31;5.63;;;3.22;;
73693;SDS011;61997;53.974;11.670;2023-05-21T03:47:56;6.80;;;3.67;;
73693;SDS011;61997;53.974;11.670;2023-05-21T03:50:22;7.97;;;3.35;;
73693;SDS011;61997;53.974;11.670;2023-05-21T03:52:47;6.05;;;3.25;;
73693;SDS011;61997;53.974;11.670;2023-05-21T03:55:12;5.18;;;3.80;;
73693;SDS011;61997;53.974;11.670;2023-05-21T03:57:38;6.47;;;3.53;;
73693;SDS011;61997;53.974;11.670;2023-05-21T04:00:03;5.93;;;3.10;;
73693;SDS011;61997;53.974;11.670;2023-05-21T04:02:30;6.28;;;3.30;;
73693;SDS011;61997;53.974;11.670;2023-05-21T04:04:56;4.88;;;3.00;;
73693;SDS011;61997;53.974;11.670;2023-05-21T04:07:21;5.78;;;3.13;;
73693;SDS011;61997;53.974;11.670;2023-05-21T04:09:47;4.80;;;3.00;;
73693;SDS011;61997;53.974;11.670;2023-05-21T04:12:13;6.18;;;3.65;;
73693;SDS011;61997;53.974;11.670;2023-05-21T04:14:38;5.63;;;3.15;;
73693;SDS011;61997;53.974;11.670;2023-05-21T04:17:03;5.60;;;2.95;;
73693;SDS011;61997;53.974;11.670;2023-05-21T04:19:29;5.22;;;3.17;;
73693;SDS011;61997;53.974;11.670;2023-05-21T04:21:55;4.75;;;3.25;;
73693;SDS011;61997;53.974;11.670;2023-05-21T04:24:22;4.78;;;3.10;;
73693;SDS011;61997;53.974;11.670;2023-05-21T04:26:47;6.30;;;3.30;;
73693;SDS011;61997;53.974;11.670;2023-05-21T04:29:14;4.53;;;2.78;;
73693;SDS011;61997;53.974;11.670;2023-05-21T04:31:42;4.32;;;2.90;;
73693;SDS011;61997;53.974;11.670;2023-05-21T04:34:07;5.18;;;3.25;;
73693;SDS011;61997;53.974;11.670;2023-05-21T04:36:32;4.88;;;2.80;;
73693;SDS011;61997;53.974;11.670;2023-05-21T04:38:58;5.93;;;2.90;;
73693;SDS011;61997;53.974;11.670;2023-05-21T04:41:23;7.50;;;3.45;;
73693;SDS011;61997;53.974;11.670;2023-05-21T04:43:49;5.30;;;2.95;;
73693;SDS011;61997;53.974;11.670;2023-05-21T04:46:18;5.53;;;3.35;;
73693;SDS011;61997;53.974;11.670;2023-05-21T04:48:53;4.85;;;2.85;;
73693;SDS011;61997;53.974;11.670;2023-05-21T04:51:19;5.03;;;3.10;;
73693;SDS011;61997;53.974;11.670;2023-05-21T04:53:45;5.38;;;2.70;;
73693;SDS011;61997;53.974;11.670;2023-05-21T04:56:12;4.13;;;2.83;;
73693;SDS011;61997;53.974;11.670;2023-05-21T04:58:37;5.03;;;2.42;;
73693;SDS011;61997;53.974;11.670;2023-05-21T05:01:04;4.75;;;2.90;;
73693;SDS011;61997;53.974;11.670;2023-05-21T05:03:29;4.57;;;2.65;;
73693;SDS011;61997;53.974;11.670;2023-05-21T05:05:55;5.82;;;3.35;;
73693;SDS011;61997;53.974;11.670;2023-05-21T05:08:20;4.93;;;2.75;;
73693;SDS011;61997;53.974;11.670;2023-05-21T05:10:46;5.47;;;2.70;;
73693;SDS011;61997;53.974;11.670;2023-05-21T05:13:11;5.82;;;3.08;;
73693;SDS011;61997;53.974;11.670;2023-05-21T05:15:36;5.43;;;2.90;;
73693;SDS011;61997;53.974;11.670;2023-05-21T05:18:02;4.82;;;3.30;;
73693;SDS011;61997;53.974;11.670;2023-05-21T05:20:27;4.15;;;2.70;;
73693;SDS011;61997;53.974;11.670;2023-05-21T05:22:52;6.35;;;3.10;;
73693;SDS011;61997;53.974;11.670;2023-05-21T05:25:18;4.35;;;2.60;;
73693;SDS011;61997;53.974;11.670;2023-05-21T05:27:43;5.30;;;2.75;;
73693;SDS011;61997;53.974;11.670;2023-05-21T05:30:09;3.83;;;2.42;;
73693;SDS011;61997;53.974;11.670;2023-05-21T05:32:34;4.85;;;3.38;;
73693;SDS011;61997;53.974;11.670;2023-05-21T05:35:00;6.22;;;2.80;;
73693;SDS011;61997;53.974;11.670;2023-05-21T05:37:26;4.28;;;2.42;;
73693;SDS011;61997;53.974;11.670;2023-05-21T05:39:52;4.90;;;3.13;;
73693;SDS011;61997;53.974;11.670;2023-05-21T05:42:17;4.85;;;2.53;;
73693;SDS011;61997;53.974;11.670;2023-05-21T05:44:42;5.68;;;2.70;;
73693;SDS011;61997;53.974;11.670;2023-05-21T05:47:08;4.07;;;2.75;;
73693;SDS011;61997;53.974;11.670;2023-05-21T05:49:35;5.22;;;2.70;;
73693;SDS011;61997;53.974;11.670;2023-05-21T05:52:00;4.05;;;2.35;;
73693;SDS011;61997;53.974;11.670;2023-05-21T05:54:26;4.90;;;2.88;;
73693;SDS011;61997;53.974;11.670;2023-05-21T05:56:51;4.50;;;2.70;;
73693;SDS011;61997;53.974;11.670;2023-05-21T05:59:17;4.93;;;2.97;;
73693;SDS011;61997;53.974;11.670;2023-05-21T06:01:42;3.70;;;2.40;;
73693;SDS011;61997;53.974;11.670;2023-05-21T06:04:08;3.47;;;2.42;;
73693;SDS011;61997;53.974;11.670;2023-05-21T06:06:33;3.42;;;2.42;;
73693;SDS011;61997;53.974;11.670;2023-05-21T06:08:58;4.80;;;2.72;;
73693;SDS011;61997;53.974;11.670;2023-05-21T06:11:24;3.92;;;2.92;;
73693;SDS011;61997;53.974;11.670;2023-05-21T06:13:50;5.28;;;2.90;;
73693;SDS011;61997;53.974;11.670;2023-05-21T06:16:16;4.10;;;2.63;;
73693;SDS011;61997;53.974;11.670;2023-05-21T06:18:41;4.15;;;2.50;;
73693;SDS011;61997;53.974;11.670;2023-05-21T06:21:06;4.27;;;2.63;;
73693;SDS011;61997;53.974;11.670;2023-05-21T06:23:32;4.55;;;2.95;;
73693;SDS011;61997;53.974;11.670;2023-05-21T06:25:59;4.75;;;2.75;;
73693;SDS011;61997;53.974;11.670;2023-05-21T06:28:24;3.88;;;2.50;;
73693;SDS011;61997;53.974;11.670;2023-05-21T06:30:50;3.72;;;2.30;;
73693;SDS011;61997;53.974;11.670;2023-05-21T06:33:15;4.47;;;2.90;;
73693;SDS011;61997;53.974;11.670;2023-05-21T06:35:40;4.80;;;2.47;;
73693;SDS011;61997;53.974;11.670;2023-05-21T06:38:06;5.00;;;3.00;;
73693;SDS011;61997;53.974;11.670;2023-05-21T06:40:32;4.65;;;2.45;;
73693;SDS011;61997;53.974;11.670;2023-05-21T06:42:58;3.58;;;2.72;;
73693;SDS011;61997;53.974;11.670;2023-05-21T06:45:24;4.55;;;2.72;;
73693;SDS011;61997;53.974;11.670;2023-05-21T06:47:49;3.70;;;2.53;;
73693;SDS011;61997;53.974;11.670;2023-05-21T06:50:14;4.28;;;2.50;;
73693;SDS011;61997;53.974;11.670;2023-05-21T06:52:40;5.07;;;2.75;;
73693;SDS011;61997;53.974;11.670;2023-05-21T06:55:06;4.25;;;2.72;;
73693;SDS011;61997;53.974;11.670;2023-05-21T06:57:31;5.28;;;2.67;;
73693;SDS011;61997;53.974;11.670;2023-05-21T06:59:57;5.15;;;2.60;;
73693;SDS011;61997;53.974;11.670;2023-05-21T07:02:22;4.75;;;2.60;;
73693;SDS011;61997;53.974;11.670;2023-05-21T07:04:48;5.55;;;2.80;;
73693;SDS011;61997;53.974;11.670;2023-05-21T07:07:13;3.30;;;2.60;;
73693;SDS011;61997;53.974;11.670;2023-05-21T07:09:38;4.43;;;2.50;;
73693;SDS011;61997;53.974;11.670;2023-05-21T07:12:04;4.97;;;2.60;;
73693;SDS011;61997;53.974;11.670;2023-05-21T07:14:29;4.18;;;2.70;;
73693;SDS011;61997;53.974;11.670;2023-05-21T07:16:55;4.20;;;2.88;;
73693;SDS011;61997;53.974;11.670;2023-05-21T07:19:20;4.93;;;3.05;;
73693;SDS011;61997;53.974;11.670;2023-05-21T07:21:46;3.58;;;2.83;;
73693;SDS011;61997;53.974;11.670;2023-05-21T07:24:11;4.55;;;2.83;;
73693;SDS011;61997;53.974;11.670;2023-05-21T07:26:36;3.95;;;2.85;;
73693;SDS011;61997;53.974;11.670;2023-05-21T07:29:02;4.35;;;2.95;;
73693;SDS011;61997;53.974;11.670;2023-05-21T07:31:27;4.07;;;2.80;;
73693;SDS011;61997;53.974;11.670;2023-05-21T07:33:52;3.22;;;2.72;;
73693;SDS011;61997;53.974;11.670;2023-05-21T07:36:18;3.83;;;2.55;;
73693;SDS011;61997;53.974;11.670;2023-05-21T07:38:45;4.32;;;2.88;;
73693;SDS011;61997;53.974;11.670;2023-05-21T07:41:10;4.05;;;2.55;;
73693;SDS011;61997;53.974;11.670;2023-05-21T07:43:37;4.88;;;2.65;;
73693;SDS011;61997;53.974;11.670;2023-05-21T07:46:02;4.88;;;2.97;;
73693;SDS011;61997;53.974;11.670;2023-05-21T07:48:28;3.65;;;2.80;;
73693;SDS011;61997;53.974;11.670;2023-05-21T07:50:53;4.78;;;3.10;;
73693;SDS011;61997;53.974;11.670;2023-05-21T07:53:20;4.13;;;2.67;;
73693;SDS011;61997;53.974;11.670;2023-05-21T07:55:46;3.65;;;2.80;;
73693;SDS011;61997;53.974;11.670;2023-05-21T07:58:17;5.18;;;2.90;;
73693;SDS011;61997;53.974;11.670;2023-05-21T08:00:44;4.30;;;3.05;;
73693;SDS011;61997;53.974;11.670;2023-05-21T08:03:13;4.50;;;3.47;;
73693;SDS011;61997;53.974;11.670;2023-05-21T08:05:40;4.78;;;2.88;;
73693;SDS011;61997;53.974;11.670;2023-05-21T08:08:13;5.05;;;3.17;;
73693;SDS011;61997;53.974;11.670;2023-05-21T08:10:45;5.13;;;3.28;;
73693;SDS011;61997;53.974;11.670;2023-05-21T08:13:11;3.95;;;2.78;;
73693;SDS011;61997;53.974;11.670;2023-05-21T08:15:38;4.05;;;2.85;;
73693;SDS011;61997;53.974;11.670;2023-05-21T08:18:03;5.50;;;3.42;;
73693;SDS011;61997;53.974;11.670;2023-05-21T08:20:29;4.78;;;3.38;;
73693;SDS011;61997;53.974;11.670;2023-05-21T08:22:56;5.60;;;3.30;;
73693;SDS011;61997;53.974;11.670;2023-05-21T08:25:21;6.10;;;3.60;;
73693;SDS011;61997;53.974;11.670;2023-05-21T08:27:47;4.07;;;3.20;;
73693;SDS011;61997;53.974;11.670;2023-05-21T08:30:12;4.05;;;2.95;;
73693;SDS011;61997;53.974;11.670;2023-05-21T08:32:38;5.03;;;3.17;;
73693;SDS011;61997;53.974;11.670;2023-05-21T08:35:04;4.45;;;3.17;;
73693;SDS011;61997;53.974;11.670;2023-05-21T08:37:30;4.97;;;3.17;;
73693;SDS011;61997;53.974;11.670;2023-05-21T08:39:55;4.75;;;3.25;;
73693;SDS011;61997;53.974;11.670;2023-05-21T08:42:26;5.10;;;3.50;;
73693;SDS011;61997;53.974;11.670;2023-05-21T08:44:58;4.05;;;3.08;;
73693;SDS011;61997;53.974;11.670;2023-05-21T08:47:25;5.03;;;3.78;;
73693;SDS011;61997;53.974;11.670;2023-05-21T08:49:53;6.38;;;3.72;;
73693;SDS011;61997;53.974;11.670;2023-05-21T08:52:19;5.55;;;3.42;;
73693;SDS011;61997;53.974;11.670;2023-05-21T08:54:45;5.72;;;3.45;;
73693;SDS011;61997;53.974;11.670;2023-05-21T08:57:11;4.88;;;3.17;;
73693;SDS011;61997;53.974;11.670;2023-05-21T08:59:38;3.88;;;3.25;;
73693;SDS011;61997;53.974;11.670;2023-05-21T09:02:09;4.38;;;3.17;;
73693;SDS011;61997;53.974;11.670;2023-05-21T09:04:37;4.68;;;3.45;;
73693;SDS011;61997;53.974;11.670;2023-05-21T09:07:04;5.32;;;3.53;;
73693;SDS011;61997;53.974;11.670;2023-05-21T09:09:36;4.90;;;3.50;;
73693;SDS011;61997;53.974;11.670;2023-05-21T09:12:05;5.72;;;3.53;;
73693;SDS011;61997;53.974;11.670;2023-05-21T09:14:31;4.75;;;3.40;;
73693;SDS011;61997;53.974;11.670;2023-05-21T09:16:57;6.40;;;4.28;;
73693;SDS011;61997;53.974;11.670;2023-05-21T09:19:22;5.38;;;3.70;;
73693;SDS011;61997;53.974;11.670;2023-05-21T09:21:50;4.82;;;3.65;;
73693;SDS011;61997;53.974;11.670;2023-05-21T09:24:16;4.88;;;3.90;;
73693;SDS011;61997;53.974;11.670;2023-05-21T09:26:44;5.97;;;3.72;;
73693;SDS011;61997;53.974;11.670;2023-05-21T09:29:11;6.82;;;4.05;;
73693;SDS011;61997;53.974;11.670;2023-05-21T09:31:40;4.45;;;3.50;;
73693;SDS011;61997;53.974;11.670;2023-05-21T09:34:10;6.22;;;3.88;;
73693;SDS011;61997;53.974;11.670;2023-05-21T09:36:36;5.68;;;4.18;;
73693;SDS011;61997;53.974;11.670;2023-05-21T09:39:02;5.68;;;3.88;;
73693;SDS011;61997;53.974;11.670;2023-05-21T09:41:32;7.00;;;4.47;;
73693;SDS011;61997;53.974;11.670;2023-05-21T09:43:59;5.55;;;4.00;;
73693;SDS011;61997;53.974;11.670;2023-05-21T09:46:25;6.03;;;3.72;;
73693;SDS011;61997;53.974;11.670;2023-05-21T09:48:51;4.50;;;3.65;;
73693;SDS011;61997;53.974;11.670;2023-05-21T09:51:20;5.40;;;3.92;;
73693;SDS011;61997;53.974;11.670;2023-05-21T09:56:28;6.05;;;3.95;;
73693;SDS011;61997;53.974;11.670;2023-05-21T09:58:58;5.60;;;3.88;;
73693;SDS011;61997;53.974;11.670;2023-05-21T10:01:26;4.28;;;3.45;;
73693;SDS011;61997;53.974;11.670;2023-05-21T10:03:56;6.30;;;4.18;;
73693;SDS011;61997;53.974;11.670;2023-05-21T10:06:23;5.57;;;4.03;;
73693;SDS011;61997;53.974;11.670;2023-05-21T10:08:50;6.20;;;4.10;;
73693;SDS011;61997;53.974;11.670;2023-05-21T10:11:18;6.40;;;4.30;;
73693;SDS011;61997;53.974;11.670;2023-05-21T10:13:44;7.53;;;4.43;;
73693;SDS011;61997;53.974;11.670;2023-05-21T10:16:12;5.68;;;3.85;;
73693;SDS011;61997;53.974;11.670;2023-05-21T10:18:39;6.35;;;4.70;;
73693;SDS011;61997;53.974;11.670;2023-05-21T10:21:06;6.53;;;4.85;;
73693;SDS011;61997;53.974;11.670;2023-05-21T10:23:32;5.00;;;3.53;;
73693;SDS011;61997;53.974;11.670;2023-05-21T10:26:00;5.85;;;4.72;;
73693;SDS011;61997;53.974;11.670;2023-05-21T10:28:26;6.03;;;4.00;;
73693;SDS011;61997;53.974;11.670;2023-05-21T10:30:52;6.40;;;4.50;;
73693;SDS011;61997;53.974;11.670;2023-05-21T10:33:18;5.13;;;4.30;;
73693;SDS011;61997;53.974;11.670;2023-05-21T10:35:45;6.53;;;4.90;;
73693;SDS011;61997;53.974;11.670;2023-05-21T10:38:11;5.68;;;4.57;;
73693;SDS011;61997;53.974;11.670;2023-05-21T10:40:38;5.63;;;4.00;;
73693;SDS011;61997;53.974;11.670;2023-05-21T10:55:01;6.55;;;4.38;;
73693;SDS011;61997;53.974;11.670;2023-05-21T10:57:56;7.13;;;5.13;;
73693;SDS011;61997;53.974;11.670;2023-05-21T11:00:44;6.68;;;5.28;;
73693;SDS011;61997;53.974;11.670;2023-05-21T11:03:11;6.22;;;5.03;;
73693;SDS011;61997;53.974;11.670;2023-05-21T11:05:40;7.35;;;4.95;;
73693;SDS011;61997;53.974;11.670;2023-05-21T11:08:19;5.78;;;4.85;;
73693;SDS011;61997;53.974;11.670;2023-05-21T11:10:50;6.07;;;4.57;;
73693;SDS011;61997;53.974;11.670;2023-05-21T11:13:16;6.57;;;5.03;;
73693;SDS011;61997;53.974;11.670;2023-05-21T11:20:55;7.32;;;5.47;;
73693;SDS011;61997;53.974;11.670;2023-05-21T11:26:18;6.05;;;4.80;;
73693;SDS011;61997;53.974;11.670;2023-05-21T11:28:45;6.95;;;5.05;;
73693;SDS011;61997;53.974;11.670;2023-05-21T11:31:21;7.53;;;5.13;;
73693;SDS011;61997;53.974;11.670;2023-05-21T11:36:38;6.38;;;4.93;;
73693;SDS011;61997;53.974;11.670;2023-05-21T11:39:14;5.40;;;4.72;;
73693;SDS011;61997;53.974;11.670;2023-05-21T11:41:52;5.97;;;4.72;;
73693;SDS011;61997;53.974;11.670;2023-05-21T11:44:38;7.90;;;5.50;;
73693;SDS011;61997;53.974;11.670;2023-05-21T11:47:04;7.75;;;5.30;;
73693;SDS011;61997;53.974;11.670;2023-05-21T11:49:31;7.43;;;5.53;;
73693;SDS011;61997;53.974;11.670;2023-05-21T11:51:57;5.05;;;4.55;;
73693;SDS011;61997;53.974;11.670;2023-05-21T11:54:24;7.32;;;4.95;;
73693;SDS011;61997;53.974;11.670;2023-05-21T11:56:50;6.97;;;5.28;;
73693;SDS011;61997;53.974;11.670;2023-05-21T11:59:16;6.60;;;5.10;;
73693;SDS011;61997;53.974;11.670;2023-05-21T12:01:42;6.53;;;5.07;;
73693;SDS011;61997;53.974;11.670;2023-05-21T12:04:08;6.22;;;5.22;;
73693;SDS011;61997;53.974;11.670;2023-05-21T12:06:36;7.45;;;5.10;;
73693;SDS011;61997;53.974;11.670;2023-05-21T12:09:03;7.07;;;5.45;;
73693;SDS011;61997;53.974;11.670;2023-05-21T12:11:36;6.07;;;4.80;;
73693;SDS011;61997;53.974;11.670;2023-05-21T12:14:09;6.88;;;5.40;;
73693;SDS011;61997;53.974;11.670;2023-05-21T12:16:35;6.28;;;5.20;;
73693;SDS011;61997;53.974;11.670;2023-05-21T12:19:01;7.05;;;5.10;;
73693;SDS011;61997;53.974;11.670;2023-05-21T12:21:28;7.90;;;5.30;;
73693;SDS011;61997;53.974;11.670;2023-05-21T12:23:54;6.88;;;5.07;;
73693;SDS011;61997;53.974;11.670;2023-05-21T12:26:21;7.25;;;5.50;;
73693;SDS011;61997;53.974;11.670;2023-05-21T12:28:51;6.55;;;5.28;;
73693;SDS011;61997;53.974;11.670;2023-05-21T12:31:18;7.50;;;5.38;;
73693;SDS011;61997;53.974;11.670;2023-05-21T12:33:49;7.03;;;5.70;;
73693;SDS011;61997;53.974;11.670;2023-05-21T12:36:20;8.35;;;5.45;;
73693;SDS011;61997;53.974;11.670;2023-05-21T12:38:57;7.20;;;5.28;;
73693;SDS011;61997;53.974;11.670;2023-05-21T12:41:23;8.18;;;5.40;;
73693;SDS011;61997;53.974;11.670;2023-05-21T12:43:50;7.88;;;4.95;;
73693;SDS011;61997;53.974;11.670;2023-05-21T12:46:16;7.68;;;5.63;;
73693;SDS011;61997;53.974;11.670;2023-05-21T12:48:49;6.10;;;5.00;;
73693;SDS011;61997;53.974;11.670;2023-05-21T12:51:18;6.93;;;5.00;;
73693;SDS011;61997;53.974;11.670;2023-05-21T12:53:45;7.75;;;5.50;;
73693;SDS011;61997;53.974;11.670;2023-05-21T12:56:11;6.97;;;5.72;;
73693;SDS011;61997;53.974;11.670;2023-05-21T12:58:41;7.10;;;5.35;;
73693;SDS011;61997;53.974;11.670;2023-05-21T13:03:33;6.68;;;5.30;;
73693;SDS011;61997;53.974;11.670;2023-05-21T13:06:02;6.65;;;5.15;;
73693;SDS011;61997;53.974;11.670;2023-05-21T13:08:30;7.82;;;5.55;;
73693;SDS011;61997;53.974;11.670;2023-05-21T13:10:58;6.78;;;5.60;;
73693;SDS011;61997;53.974;11.670;2023-05-21T13:13:24;6.95;;;5.00;;
73693;SDS011;61997;53.974;11.670;2023-05-21T13:15:51;7.38;;;5.35;;
73693;SDS011;61997;53.974;11.670;2023-05-21T13:18:16;7.93;;;5.43;;
73693;SDS011;61997;53.974;11.670;2023-05-21T13:20:44;7.68;;;5.82;;
73693;SDS011;61997;53.974;11.670;2023-05-21T13:23:10;7.25;;;5.38;;
73693;SDS011;61997;53.974;11.670;2023-05-21T13:25:36;7.68;;;6.47;;
73693;SDS011;61997;53.974;11.670;2023-05-21T13:28:02;7.20;;;5.25;;
73693;SDS011;61997;53.974;11.670;2023-05-21T13:30:29;6.43;;;5.28;;
73693;SDS011;61997;53.974;11.670;2023-05-21T13:32:54;8.18;;;5.43;;
73693;SDS011;61997;53.974;11.670;2023-05-21T13:35:20;6.78;;;5.32;;
73693;SDS011;61997;53.974;11.670;2023-05-21T13:37:45;6.82;;;5.10;;
73693;SDS011;61997;53.974;11.670;2023-05-21T13:40:11;6.82;;;5.40;;
73693;SDS011;61997;53.974;11.670;2023-05-21T13:42:38;7.55;;;4.72;;
73693;SDS011;61997;53.974;11.670;2023-05-21T13:45:08;6.03;;;5.07;;
73693;SDS011;61997;53.974;11.670;2023-05-21T13:47:34;6.40;;;5.25;;
73693;SDS011;61997;53.974;11.670;2023-05-21T13:50:00;7.28;;;5.70;;
73693;SDS011;61997;53.974;11.670;2023-05-21T13:52:26;6.63;;;5.80;;
73693;SDS011;61997;53.974;11.670;2023-05-21T13:54:51;5.88;;;4.68;;
73693;SDS011;61997;53.974;11.670;2023-05-21T13:57:17;6.80;;;5.35;;
73693;SDS011;61997;53.974;11.670;2023-05-21T13:59:42;7.03;;;5.55;;
73693;SDS011;61997;53.974;11.670;2023-05-21T14:02:09;7.10;;;5.20;;
73693;SDS011;61997;53.974;11.670;2023-05-21T14:04:35;6.50;;;5.53;;
73693;SDS011;61997;53.974;11.670;2023-05-21T14:07:01;5.97;;;5.03;;
73693;SDS011;61997;53.974;11.670;2023-05-21T14:09:27;5.90;;;5.30;;
73693;SDS011;61997;53.974;11.670;2023-05-21T14:11:53;6.95;;;5.25;;
73693;SDS011;61997;53.974;11.670;2023-05-21T14:14:20;6.72;;;5.13;;
73693;SDS011;61997;53.974;11.670;2023-05-21T14:16:45;7.13;;;4.97;;
73693;SDS011;61997;53.974;11.670;2023-05-21T14:19:11;7.72;;;5.53;;
73693;SDS011;61997;53.974;11.670;2023-05-21T14:21:37;6.47;;;5.25;;
73693;SDS011;61997;53.974;11.670;2023-05-21T14:24:04;6.78;;;5.50;;
73693;SDS011;61997;53.974;11.670;2023-05-21T14:26:29;7.68;;;5.32;;
73693;SDS011;61997;53.974;11.670;2023-05-21T14:28:54;6.28;;;5.50;;
73693;SDS011;61997;53.974;11.670;2023-05-21T14:31:20;6.28;;;5.43;;
73693;SDS011;61997;53.974;11.670;2023-05-21T14:33:47;6.45;;;4.95;;
73693;SDS011;61997;53.974;11.670;2023-05-21T14:36:13;6.30;;;5.10;;
73693;SDS011;61997;53.974;11.670;2023-05-21T14:38:38;6.97;;;5.38;;
73693;SDS011;61997;53.974;11.670;2023-05-21T14:41:04;7.22;;;5.50;;
73693;SDS011;61997;53.974;11.670;2023-05-21T14:43:31;7.63;;;5.55;;
73693;SDS011;61997;53.974;11.670;2023-05-21T14:45:56;6.22;;;5.60;;
73693;SDS011;61997;53.974;11.670;2023-05-21T14:48:22;5.75;;;5.13;;
73693;SDS011;61997;53.974;11.670;2023-05-21T14:50:51;6.43;;;5.20;;
73693;SDS011;61997;53.974;11.670;2023-05-21T14:53:17;6.82;;;5.50;;
73693;SDS011;61997;53.974;11.670;2023-05-21T14:55:43;6.22;;;5.32;;
73693;SDS011;61997;53.974;11.670;2023-05-21T14:58:09;7.95;;;5.75;;
73693;SDS011;61997;53.974;11.670;2023-05-21T15:00:34;7.13;;;5.70;;
73693;SDS011;61997;53.974;11.670;2023-05-21T15:03:00;6.68;;;5.53;;